createdAt,value
2023-08-24T00:00:21.428Z,21.21
2023-08-24T00:01:21.425Z,21.17
2023-08-24T00:02:21.438Z,21.16
2023-08-24T00:03:21.466Z,21.16
2023-08-24T00:04:21.468Z,21.14
2023-08-24T00:05:21.443Z,21.13
2023-08-24T00:06:21.348Z,21.10
2023-08-24T00:07:21.409Z,21.09
2023-08-24T00:08:21.379Z,21.12
2023-08-24T00:09:21.389Z,21.09
2023-08-24T00:10:21.310Z,21.09
2023-08-24T00:11:21.336Z,21.07
2023-08-24T00:12:21.457Z,21.04
2023-08-24T00:13:21.309Z,21.01
2023-08-24T00:14:21.327Z,21.01
2023-08-24T00:15:21.249Z,20.99
2023-08-24T00:16:21.345Z,20.98
2023-08-24T00:17:21.267Z,20.99
2023-08-24T00:18:21.374Z,20.97
2023-08-24T00:19:21.289Z,20.98
2023-08-24T00:20:21.232Z,20.95
2023-08-24T00:21:21.252Z,20.97
2023-08-24T00:22:21.210Z,20.95
2023-08-24T00:23:21.178Z,20.95
2023-08-24T00:24:21.218Z,20.91
2023-08-24T00:25:21.200Z,20.91
2023-08-24T00:26:21.158Z,20.89
2023-08-24T00:27:21.202Z,20.88
2023-08-24T00:28:21.323Z,20.87
2023-08-24T00:29:21.101Z,20.82
2023-08-24T00:30:21.183Z,20.82
2023-08-24T00:31:21.113Z,20.80
2023-08-24T00:32:21.214Z,20.80
2023-08-24T00:33:21.102Z,20.77
2023-08-24T00:34:21.081Z,20.77
2023-08-24T00:35:21.141Z,20.79
2023-08-24T00:36:21.078Z,20.77
2023-08-24T00:37:21.015Z,20.79
2023-08-24T00:38:21.044Z,20.76
2023-08-24T00:39:21.061Z,20.74
2023-08-24T00:40:21.110Z,20.74
2023-08-24T00:41:21.027Z,20.73
2023-08-24T00:42:21.040Z,20.72
2023-08-24T00:43:21.046Z,20.72
2023-08-24T00:44:20.967Z,20.69
2023-08-24T00:45:20.982Z,20.69
2023-08-24T00:46:20.987Z,20.67
2023-08-24T00:47:20.961Z,20.67
2023-08-24T00:48:20.962Z,20.67
2023-08-24T00:49:20.887Z,20.67
2023-08-24T00:50:20.985Z,20.67
2023-08-24T00:51:20.902Z,20.67
2023-08-24T00:52:21.013Z,20.66
2023-08-24T00:53:20.895Z,20.67
2023-08-24T00:54:20.865Z,20.67
2023-08-24T00:55:20.961Z,20.66
2023-08-24T00:56:20.831Z,20.64
2023-08-24T00:57:20.945Z,20.67
2023-08-24T00:58:20.815Z,20.62
2023-08-24T00:59:20.838Z,20.61
2023-08-24T01:00:20.817Z,20.61
2023-08-24T01:01:20.853Z,20.61
2023-08-24T01:02:20.838Z,20.62
2023-08-24T01:03:20.842Z,20.62
2023-08-24T01:04:20.782Z,20.62
2023-08-24T01:05:20.744Z,20.62
2023-08-24T01:06:20.717Z,20.62
2023-08-24T01:07:20.783Z,20.62
2023-08-24T01:08:20.723Z,20.61
2023-08-24T01:09:20.696Z,20.59
2023-08-24T01:10:20.737Z,20.57
2023-08-24T01:11:20.694Z,20.55
2023-08-24T01:12:20.693Z,20.57
2023-08-24T01:13:20.631Z,20.55
2023-08-24T01:14:20.697Z,20.55
2023-08-24T01:15:20.631Z,20.57
2023-08-24T01:16:20.629Z,20.58
2023-08-24T01:17:20.747Z,20.59
2023-08-24T01:18:20.666Z,20.61
2023-08-24T01:19:20.597Z,20.61
2023-08-24T01:20:20.659Z,20.61
2023-08-24T01:21:20.547Z,20.62
2023-08-24T01:22:20.532Z,20.66
2023-08-24T01:23:20.547Z,20.67
2023-08-24T01:24:20.611Z,20.72
2023-08-24T01:25:20.597Z,20.72
2023-08-24T01:26:20.508Z,20.72
2023-08-24T01:27:20.628Z,20.72
2023-08-24T01:28:20.479Z,20.74
2023-08-24T01:29:20.559Z,20.77
2023-08-24T01:30:20.476Z,20.77
2023-08-24T01:31:20.566Z,20.77
2023-08-24T01:32:20.496Z,20.80
2023-08-24T01:33:20.423Z,20.80
2023-08-24T01:34:20.439Z,20.80
2023-08-24T01:35:20.473Z,20.82
2023-08-24T01:36:20.469Z,20.85
2023-08-24T01:37:20.409Z,20.87
2023-08-24T01:38:20.410Z,20.87
2023-08-24T01:39:20.415Z,20.88
2023-08-24T01:40:20.381Z,20.88
2023-08-24T01:41:20.350Z,20.89
2023-08-24T01:42:20.390Z,20.91
2023-08-24T01:43:28.636Z,20.92
2023-08-24T01:44:21.406Z,20.91
2023-08-24T01:45:20.344Z,20.89
2023-08-24T01:46:20.325Z,20.87
2023-08-24T01:47:20.301Z,20.88
2023-08-24T01:48:20.290Z,20.88
2023-08-24T01:49:20.291Z,20.88
2023-08-24T01:50:20.303Z,20.87
2023-08-24T01:51:20.250Z,20.88
2023-08-24T01:52:20.302Z,20.89
2023-08-24T01:53:20.229Z,20.88
2023-08-24T01:54:20.223Z,20.89
2023-08-24T01:55:20.254Z,20.88
2023-08-24T01:56:20.191Z,20.88
2023-08-24T01:57:20.211Z,20.88
2023-08-24T01:58:20.231Z,20.88
2023-08-24T01:59:20.145Z,20.87
2023-08-24T02:00:20.165Z,20.87
2023-08-24T02:01:20.225Z,20.85
2023-08-24T02:02:20.517Z,20.87
2023-08-24T02:03:20.283Z,20.84
2023-08-24T02:04:20.194Z,20.85
2023-08-24T02:05:20.133Z,20.84
2023-08-24T02:06:20.130Z,20.85
2023-08-24T02:07:20.095Z,20.80
2023-08-24T02:08:20.136Z,20.79
2023-08-24T02:09:20.076Z,20.79
2023-08-24T02:10:20.049Z,20.79
2023-08-24T02:11:20.043Z,20.79
2023-08-24T02:12:20.035Z,20.77
2023-08-24T02:13:20.019Z,20.74
2023-08-24T02:14:20.027Z,20.73
2023-08-24T02:15:20.000Z,20.73
2023-08-24T02:16:20.128Z,20.73
2023-08-24T02:17:19.946Z,20.69
2023-08-24T02:18:20.016Z,20.69
2023-08-24T02:19:19.974Z,20.70
2023-08-24T02:20:19.945Z,20.69
2023-08-24T02:21:19.952Z,20.69
2023-08-24T02:22:19.913Z,20.73
2023-08-24T02:23:19.902Z,20.72
2023-08-24T02:24:19.916Z,20.76
2023-08-24T02:25:19.914Z,20.74
2023-08-24T02:26:19.897Z,20.77
2023-08-24T02:27:19.850Z,20.79
2023-08-24T02:28:19.878Z,20.80
2023-08-24T02:29:19.863Z,20.84
2023-08-24T02:30:19.854Z,20.87
2023-08-24T02:31:19.852Z,20.88
2023-08-24T02:32:19.809Z,20.91
2023-08-24T02:33:19.851Z,20.91
2023-08-24T02:34:19.782Z,20.92
2023-08-24T02:35:19.919Z,20.94
2023-08-24T02:36:19.795Z,20.95
2023-08-24T02:37:19.762Z,20.98
2023-08-24T02:38:19.800Z,20.99
2023-08-24T02:39:19.789Z,21.01
2023-08-24T02:40:19.745Z,21.03
2023-08-24T02:41:19.756Z,21.03
2023-08-24T02:42:19.736Z,21.06
2023-08-24T02:43:19.685Z,21.03
2023-08-24T02:44:19.695Z,21.03
2023-08-24T02:45:19.675Z,21.06
2023-08-24T02:46:19.727Z,21.06
2023-08-24T02:47:19.680Z,21.07
2023-08-24T02:48:19.636Z,21.06
2023-08-24T02:49:20.156Z,21.09
2023-08-24T02:50:19.629Z,21.10
2023-08-24T02:51:19.620Z,21.12
2023-08-24T02:52:19.670Z,21.13
2023-08-24T02:53:19.622Z,21.13
2023-08-24T02:54:19.555Z,21.14
2023-08-24T02:55:19.637Z,21.13
2023-08-24T02:56:19.551Z,21.13
2023-08-24T02:57:19.570Z,21.14
2023-08-24T02:58:19.546Z,21.12
2023-08-24T02:59:19.514Z,21.12
2023-08-24T03:00:19.548Z,21.13
2023-08-24T03:01:19.537Z,21.13
2023-08-24T03:02:19.589Z,21.14
2023-08-24T03:03:19.474Z,21.14
2023-08-24T03:04:19.492Z,21.13
2023-08-24T03:05:19.508Z,21.16
2023-08-24T03:06:19.472Z,21.14
2023-08-24T03:07:19.444Z,21.16
2023-08-24T03:08:19.443Z,21.16
2023-08-24T03:09:19.395Z,21.16
2023-08-24T03:10:19.389Z,21.16
2023-08-24T03:11:19.382Z,21.16
2023-08-24T03:12:19.437Z,21.19
2023-08-24T03:13:19.423Z,21.21
2023-08-24T03:14:19.442Z,21.22
2023-08-24T03:15:19.320Z,21.24
2023-08-24T03:16:19.416Z,21.22
2023-08-24T03:17:19.386Z,21.24
2023-08-24T03:18:19.345Z,21.25
2023-08-24T03:19:19.267Z,21.24
2023-08-24T03:20:19.321Z,21.27
2023-08-24T03:21:19.303Z,21.27
2023-08-24T03:22:19.269Z,21.25
2023-08-24T03:23:19.267Z,21.28
2023-08-24T03:24:19.283Z,21.27
2023-08-24T03:25:19.237Z,21.29
2023-08-24T03:26:19.242Z,21.28
2023-08-24T03:27:19.291Z,21.29
2023-08-24T03:28:19.178Z,21.28
2023-08-24T03:29:19.292Z,21.28
2023-08-24T03:30:19.255Z,21.29
2023-08-24T03:31:19.150Z,21.31
2023-08-24T03:32:19.134Z,21.31
2023-08-24T03:33:19.181Z,21.28
2023-08-24T03:34:19.100Z,21.27
2023-08-24T03:35:19.100Z,21.25
2023-08-24T03:36:19.099Z,21.24
2023-08-24T03:37:19.098Z,21.21
2023-08-24T03:38:19.128Z,21.22
2023-08-24T03:39:19.040Z,21.17
2023-08-24T03:40:19.136Z,21.13
2023-08-24T03:41:19.042Z,21.12
2023-08-24T03:42:19.174Z,21.12
2023-08-24T03:43:18.978Z,21.12
2023-08-24T03:44:19.049Z,21.10
2023-08-24T03:45:18.949Z,21.10
2023-08-24T03:46:19.305Z,21.12
2023-08-24T03:47:18.984Z,21.09
2023-08-24T03:48:19.006Z,21.09
2023-08-24T03:49:18.924Z,21.09
2023-08-24T03:50:18.918Z,21.07
2023-08-24T03:51:18.965Z,21.07
2023-08-24T03:52:18.952Z,21.07
2023-08-24T03:53:18.913Z,21.03
2023-08-24T03:54:18.880Z,20.94
2023-08-24T03:55:18.888Z,20.89
2023-08-24T03:56:18.889Z,20.88
2023-08-24T03:57:18.872Z,20.89
2023-08-24T03:58:18.854Z,20.89
2023-08-24T03:59:18.851Z,20.94
2023-08-24T04:00:18.821Z,20.97
2023-08-24T04:01:18.994Z,20.98
2023-08-24T04:02:18.915Z,20.99
2023-08-24T04:03:18.847Z,21.03
2023-08-24T04:04:18.785Z,21.04
2023-08-24T04:05:18.723Z,21.07
2023-08-24T04:06:18.783Z,21.07
2023-08-24T04:07:18.786Z,21.10
2023-08-24T04:08:18.717Z,21.12
2023-08-24T04:09:18.737Z,21.13
2023-08-24T04:10:18.738Z,21.14
2023-08-24T04:11:18.752Z,21.14
2023-08-24T04:12:18.699Z,21.17
2023-08-24T04:13:18.784Z,21.21
2023-08-24T04:14:22.821Z,21.21
2023-08-24T04:15:18.750Z,21.22
2023-08-24T04:16:18.723Z,21.27
2023-08-24T04:17:18.629Z,21.28
2023-08-24T04:18:18.673Z,21.28
2023-08-24T04:19:18.618Z,21.28
2023-08-24T04:20:18.590Z,21.31
2023-08-24T04:21:18.595Z,21.34
2023-08-24T04:22:18.630Z,21.32
2023-08-24T04:23:18.609Z,21.34
2023-08-24T04:24:18.551Z,21.34
2023-08-24T04:25:18.580Z,21.34
2023-08-24T04:26:18.572Z,21.34
2023-08-24T04:27:18.582Z,21.35
2023-08-24T04:28:18.545Z,21.37
2023-08-24T04:29:18.533Z,21.37
2023-08-24T04:30:18.488Z,21.38
2023-08-24T04:31:18.483Z,21.40
2023-08-24T04:32:18.555Z,21.37
2023-08-24T04:33:18.456Z,21.37
2023-08-24T04:34:18.460Z,21.38
2023-08-24T04:35:18.547Z,21.38
2023-08-24T04:36:18.412Z,21.38
2023-08-24T04:37:18.396Z,21.40
2023-08-24T04:38:18.459Z,21.38
2023-08-24T04:39:18.394Z,21.40
2023-08-24T04:40:18.375Z,21.43
2023-08-24T04:41:18.348Z,21.42
2023-08-24T04:42:18.388Z,21.43
2023-08-24T04:43:18.394Z,21.47
2023-08-24T04:44:18.339Z,21.49
2023-08-24T04:45:18.326Z,21.50
2023-08-24T04:46:18.362Z,21.52
2023-08-24T04:47:18.307Z,21.54
2023-08-24T04:48:18.413Z,21.59
2023-08-24T04:49:18.280Z,21.61
2023-08-24T04:50:18.277Z,21.64
2023-08-24T04:51:18.287Z,21.64
2023-08-24T04:52:18.312Z,21.68
2023-08-24T04:53:18.324Z,21.72
2023-08-24T04:54:18.252Z,21.74
2023-08-24T04:55:18.198Z,21.72
2023-08-24T04:56:18.199Z,21.74
2023-08-24T04:57:18.216Z,21.77
2023-08-24T04:58:18.223Z,21.79
2023-08-24T04:59:18.294Z,21.79
2023-08-24T05:00:18.176Z,21.80
2023-08-24T05:01:18.191Z,21.82
2023-08-24T05:02:18.171Z,21.82
2023-08-24T05:03:18.208Z,21.86
2023-08-24T05:04:18.153Z,21.91
2023-08-24T05:05:18.222Z,21.94
2023-08-24T05:06:18.161Z,21.99
2023-08-24T05:07:18.125Z,22.02
2023-08-24T05:08:18.089Z,22.07
2023-08-24T05:09:18.161Z,22.12
2023-08-24T05:10:18.080Z,22.17
2023-08-24T05:11:18.109Z,22.20
2023-08-24T05:12:18.246Z,22.20
2023-08-24T05:13:18.048Z,22.22
2023-08-24T05:14:18.088Z,22.25
2023-08-24T05:15:18.024Z,22.31
2023-08-24T05:16:18.072Z,22.35
2023-08-24T05:17:18.098Z,22.39
2023-08-24T05:18:18.023Z,22.46
2023-08-24T05:19:17.998Z,22.54
2023-08-24T05:20:18.072Z,22.58
2023-08-24T05:21:18.107Z,22.67
2023-08-24T05:22:17.969Z,22.85
2023-08-24T05:23:17.939Z,22.90
2023-08-24T05:24:17.934Z,22.94
2023-08-24T05:25:17.916Z,23.01
2023-08-24T05:26:17.906Z,23.02
2023-08-24T05:27:17.896Z,23.28
2023-08-24T05:28:17.930Z,23.90
2023-08-24T05:29:17.942Z,23.70
2023-08-24T05:30:18.014Z,23.66
2023-08-24T05:31:20.242Z,23.70
2023-08-24T05:32:17.913Z,24.27
2023-08-24T05:33:17.846Z,24.68
2023-08-24T05:34:17.786Z,24.77
2023-08-24T05:35:17.918Z,24.76
2023-08-24T05:36:17.817Z,25.09
2023-08-24T05:37:17.797Z,25.99
2023-08-24T05:38:17.862Z,26.80
2023-08-24T05:39:17.745Z,27.46
2023-08-24T05:40:17.753Z,28.07
2023-08-24T05:41:17.745Z,28.02
2023-08-24T05:42:17.740Z,28.24
2023-08-24T05:43:17.757Z,27.94
2023-08-24T05:44:17.746Z,27.70
2023-08-24T05:45:17.983Z,27.81
2023-08-24T05:46:17.726Z,27.69
2023-08-24T05:47:17.760Z,27.50
2023-08-24T05:48:17.928Z,28.30
2023-08-24T05:49:17.773Z,28.85
2023-08-24T05:50:17.614Z,29.12
2023-08-24T05:51:17.734Z,29.33
2023-08-24T05:52:17.640Z,29.70
2023-08-24T05:53:17.725Z,30.19
2023-08-24T05:54:17.619Z,30.02
2023-08-24T05:55:17.596Z,30.27
2023-08-24T05:56:17.662Z,30.62
2023-08-24T05:57:17.578Z,30.38
2023-08-24T05:58:17.556Z,30.23
2023-08-24T05:59:17.560Z,30.10
2023-08-24T06:00:17.551Z,29.67
2023-08-24T06:01:17.594Z,29.74
2023-08-24T06:02:17.507Z,30.08
2023-08-24T06:03:17.492Z,30.54
2023-08-24T06:04:17.553Z,30.77
2023-08-24T06:05:17.484Z,30.72
2023-08-24T06:06:17.505Z,31.09
2023-08-24T06:07:17.474Z,31.39
2023-08-24T06:08:17.466Z,31.61
2023-08-24T06:09:17.469Z,31.73
2023-08-24T06:10:17.498Z,31.93
2023-08-24T06:11:17.442Z,32.06
2023-08-24T06:12:17.464Z,32.01
2023-08-24T06:13:17.384Z,32.07
2023-08-24T06:14:17.477Z,32.18
2023-08-24T06:15:17.377Z,32.07
2023-08-24T06:16:17.413Z,31.92
2023-08-24T06:17:17.413Z,31.48
2023-08-24T06:18:17.422Z,31.66
2023-08-24T06:19:17.330Z,31.86
2023-08-24T06:20:17.350Z,32.06
2023-08-24T06:21:17.425Z,32.25
2023-08-24T06:22:17.339Z,32.35
2023-08-24T06:23:17.366Z,32.35
2023-08-24T06:24:17.316Z,32.48
2023-08-24T06:25:17.284Z,32.28
2023-08-24T06:26:17.245Z,32.33
2023-08-24T06:27:18.112Z,31.96
2023-08-24T06:28:17.662Z,31.39
2023-08-24T06:29:17.260Z,31.44
2023-08-24T06:30:17.253Z,31.68
2023-08-24T06:31:17.449Z,31.92
2023-08-24T06:32:17.239Z,31.75
2023-08-24T06:33:17.197Z,31.47
2023-08-24T06:34:17.282Z,30.60
2023-08-24T06:35:17.207Z,30.16
2023-08-24T06:36:17.167Z,30.08
2023-08-24T06:37:17.228Z,30.10
2023-08-24T06:38:17.242Z,30.29
2023-08-24T06:39:17.124Z,30.24
2023-08-24T06:40:17.142Z,30.04
2023-08-24T06:41:17.102Z,29.98
2023-08-24T06:42:17.122Z,29.57
2023-08-24T06:43:17.177Z,29.11
2023-08-24T06:44:17.088Z,29.06
2023-08-24T06:45:17.093Z,29.34
2023-08-24T06:46:17.109Z,29.55
2023-08-24T06:47:17.084Z,29.86
2023-08-24T06:48:17.060Z,30.11
2023-08-24T06:49:17.177Z,30.53
2023-08-24T06:50:17.077Z,30.83
2023-08-24T06:51:17.022Z,31.04
2023-08-24T06:52:17.186Z,31.06
2023-08-24T06:53:17.033Z,30.80
2023-08-24T06:54:17.013Z,30.29
2023-08-24T06:55:17.058Z,29.73
2023-08-24T06:56:16.966Z,29.24
2023-08-24T06:57:17.108Z,28.73
2023-08-24T06:58:16.980Z,28.37
2023-08-24T06:59:17.017Z,28.03
2023-08-24T07:00:16.920Z,27.27
2023-08-24T07:01:16.976Z,26.76
2023-08-24T07:02:16.908Z,26.45
2023-08-24T07:03:17.202Z,26.21
2023-08-24T07:04:16.896Z,26.06
2023-08-24T07:05:16.885Z,25.92
2023-08-24T07:06:16.853Z,25.60
2023-08-24T07:07:16.911Z,25.35
2023-08-24T07:08:16.843Z,25.10
2023-08-24T07:09:16.938Z,25.03
2023-08-24T07:10:16.830Z,24.95
2023-08-24T07:11:16.783Z,24.91
2023-08-24T07:12:16.804Z,24.88
2023-08-24T07:13:16.920Z,24.95
2023-08-24T07:14:16.856Z,24.88
2023-08-24T07:15:16.764Z,24.91
2023-08-24T07:16:16.818Z,24.96
2023-08-24T07:17:16.855Z,25.00
2023-08-24T07:18:16.724Z,25.02
2023-08-24T07:19:17.853Z,25.09
2023-08-24T07:20:16.764Z,25.10
2023-08-24T07:21:16.944Z,25.14
2023-08-24T07:22:16.712Z,25.15
2023-08-24T07:23:16.684Z,25.18
2023-08-24T07:24:17.068Z,25.25
2023-08-24T07:25:16.717Z,25.27
2023-08-24T07:26:16.664Z,25.32
2023-08-24T07:27:16.649Z,25.36
2023-08-24T07:28:16.664Z,25.33
2023-08-24T07:29:16.638Z,25.24
2023-08-24T07:30:31.065Z,25.09
2023-08-24T07:31:17.672Z,24.98
2023-08-24T07:32:16.719Z,24.83
2023-08-24T07:33:16.619Z,24.58
2023-08-24T07:34:16.573Z,24.53
2023-08-24T07:35:16.563Z,24.52
2023-08-24T07:36:16.583Z,24.60
2023-08-24T07:37:16.539Z,24.69
2023-08-24T07:38:16.607Z,24.78
2023-08-24T07:39:16.512Z,24.83
2023-08-24T07:40:16.537Z,24.87
2023-08-24T07:41:16.533Z,24.80
2023-08-24T07:42:16.485Z,24.87
2023-08-24T07:43:16.547Z,24.93
2023-08-24T07:44:16.554Z,25.00
2023-08-24T07:45:16.506Z,25.05
2023-08-24T07:46:16.479Z,25.02
2023-08-24T07:47:16.460Z,25.00
2023-08-24T07:48:16.556Z,25.02
2023-08-24T07:49:16.393Z,25.13
2023-08-24T07:50:16.568Z,25.17
2023-08-24T07:51:16.397Z,25.23
2023-08-24T07:52:16.421Z,25.36
2023-08-24T07:53:16.379Z,25.39
2023-08-24T07:54:16.400Z,25.39
2023-08-24T07:55:16.392Z,25.20
2023-08-24T07:56:16.665Z,25.06
2023-08-24T07:57:16.361Z,25.10
2023-08-24T07:58:17.229Z,25.13
2023-08-24T07:59:16.352Z,25.17
2023-08-24T08:00:16.375Z,25.23
2023-08-24T08:01:16.323Z,25.30
2023-08-24T08:02:16.346Z,25.45
2023-08-24T08:03:17.175Z,25.57
2023-08-24T08:04:17.895Z,25.67
2023-08-24T08:05:16.252Z,25.60
2023-08-24T08:06:16.286Z,25.57
2023-08-24T08:07:18.075Z,25.50
2023-08-24T08:08:18.083Z,25.58
2023-08-24T08:09:16.531Z,25.69
2023-08-24T08:10:16.340Z,25.83
2023-08-24T08:11:18.140Z,25.99
2023-08-24T08:12:17.030Z,26.06
2023-08-24T08:13:16.187Z,26.13
2023-08-24T08:14:16.179Z,26.17
2023-08-24T08:15:16.143Z,26.26
2023-08-24T08:16:17.009Z,26.40
2023-08-24T08:17:16.615Z,26.52
2023-08-24T08:18:16.404Z,26.66
2023-08-24T08:19:16.138Z,26.80
2023-08-24T08:20:16.162Z,26.82
2023-08-24T08:21:18.417Z,26.51
2023-08-24T08:22:16.399Z,26.40
2023-08-24T08:23:16.108Z,26.43
2023-08-24T08:24:25.289Z,26.40
2023-08-24T08:25:17.790Z,26.40
2023-08-24T08:26:16.383Z,26.47
2023-08-24T08:27:16.021Z,26.50
2023-08-24T08:28:17.755Z,26.50
2023-08-24T08:29:16.028Z,26.66
2023-08-24T08:30:16.027Z,26.80
2023-08-24T08:31:16.102Z,26.95
2023-08-24T08:32:16.105Z,27.09
2023-08-24T08:33:15.989Z,27.18
2023-08-24T08:34:15.983Z,27.19
2023-08-24T08:35:15.987Z,27.21
2023-08-24T08:36:15.974Z,27.18
2023-08-24T08:37:17.031Z,27.02
2023-08-24T08:38:16.514Z,26.67
2023-08-24T08:39:15.971Z,26.36
2023-08-24T08:40:16.128Z,26.32
2023-08-24T08:41:17.143Z,26.17
2023-08-24T08:42:16.522Z,26.02
2023-08-24T08:43:15.838Z,25.94
2023-08-24T08:44:17.794Z,25.91
2023-08-24T08:45:15.964Z,25.88
2023-08-24T08:46:15.920Z,25.91
2023-08-24T08:47:15.821Z,25.82
2023-08-24T08:48:15.866Z,25.75
2023-08-24T08:49:15.907Z,25.70
2023-08-24T08:50:16.560Z,25.75
2023-08-24T08:51:17.498Z,25.75
2023-08-24T08:52:16.183Z,25.76
2023-08-24T08:53:15.985Z,25.79
2023-08-24T08:54:15.730Z,25.79
2023-08-24T08:55:17.624Z,25.77
2023-08-24T08:56:15.745Z,25.80
2023-08-24T08:57:15.968Z,25.83
2023-08-24T08:58:15.716Z,25.72
2023-08-24T08:59:16.427Z,25.76
2023-08-24T09:00:15.695Z,25.82
2023-08-24T09:01:16.033Z,25.88
2023-08-24T09:02:16.668Z,25.97
2023-08-24T09:03:17.078Z,26.02
2023-08-24T09:04:16.263Z,26.10
2023-08-24T09:05:15.830Z,26.13
2023-08-24T09:06:15.618Z,26.21
2023-08-24T09:07:15.588Z,26.23
2023-08-24T09:08:16.281Z,26.23
2023-08-24T09:09:16.073Z,26.25
2023-08-24T09:10:15.604Z,26.26
2023-08-24T09:11:15.590Z,26.30
2023-08-24T09:12:15.562Z,26.32
2023-08-24T09:13:15.565Z,26.40
2023-08-24T09:14:15.540Z,26.45
2023-08-24T09:15:15.544Z,26.51
2023-08-24T09:16:16.379Z,26.51
2023-08-24T09:17:15.560Z,26.69
2023-08-24T09:18:15.533Z,26.85
2023-08-24T09:19:15.535Z,26.94
2023-08-24T09:20:17.440Z,26.87
2023-08-24T09:21:15.473Z,26.92
2023-08-24T09:22:15.959Z,26.92
2023-08-24T09:23:15.427Z,26.85
2023-08-24T09:24:15.501Z,26.77
2023-08-24T09:25:15.411Z,26.66
2023-08-24T09:26:16.088Z,26.54
2023-08-24T09:27:15.410Z,26.48
2023-08-24T09:28:15.445Z,26.39
2023-08-24T09:29:15.380Z,26.37
2023-08-24T09:30:15.468Z,26.36
2023-08-24T09:31:15.378Z,26.35
2023-08-24T09:32:15.384Z,26.36
2023-08-24T09:33:15.372Z,26.51
2023-08-24T09:34:15.382Z,26.63
2023-08-24T09:35:15.318Z,26.75
2023-08-24T09:36:15.312Z,26.87
2023-08-24T09:37:15.276Z,26.82
2023-08-24T09:38:15.321Z,26.76
2023-08-24T09:39:15.340Z,26.81
2023-08-24T09:40:15.656Z,26.91
2023-08-24T09:41:15.276Z,27.00
2023-08-24T09:42:15.254Z,27.07
2023-08-24T09:43:15.277Z,27.24
2023-08-24T09:44:15.200Z,27.39
2023-08-24T09:45:15.783Z,27.46
2023-08-24T09:46:16.350Z,27.40
2023-08-24T09:47:15.150Z,27.41
2023-08-24T09:48:15.160Z,27.40
2023-08-24T09:49:15.308Z,27.31
2023-08-24T09:50:15.187Z,27.32
2023-08-24T09:51:15.152Z,27.36
2023-08-24T09:52:15.169Z,27.31
2023-08-24T09:53:15.120Z,27.37
2023-08-24T09:54:15.138Z,27.29
2023-08-24T09:55:15.093Z,27.39
2023-08-24T09:56:15.085Z,27.44
2023-08-24T09:57:15.073Z,27.43
2023-08-24T09:58:15.298Z,27.44
2023-08-24T09:59:15.164Z,27.29
2023-08-24T10:00:15.078Z,27.25
2023-08-24T10:01:15.142Z,27.14
2023-08-24T10:02:15.109Z,26.99
2023-08-24T10:03:15.088Z,26.81
2023-08-24T10:04:14.999Z,26.80
2023-08-24T10:05:25.709Z,26.87
2023-08-24T10:06:16.060Z,26.95
2023-08-24T10:07:14.957Z,27.02
2023-08-24T10:08:14.932Z,27.14
2023-08-24T10:09:14.953Z,27.22
2023-08-24T10:10:15.031Z,27.25
2023-08-24T10:11:16.296Z,27.41
2023-08-24T10:12:15.604Z,27.50
2023-08-24T10:13:14.869Z,27.62
2023-08-24T10:14:14.891Z,27.60
2023-08-24T10:15:15.100Z,27.57
2023-08-24T10:16:14.929Z,27.31
2023-08-24T10:17:15.750Z,27.37
2023-08-24T10:18:14.939Z,27.36
2023-08-24T10:19:14.882Z,27.29
2023-08-24T10:20:14.907Z,27.29
2023-08-24T10:21:14.906Z,27.40
2023-08-24T10:22:14.851Z,27.44
2023-08-24T10:23:14.800Z,27.54
2023-08-24T10:24:14.780Z,27.63
2023-08-24T10:25:14.768Z,27.78
2023-08-24T10:26:14.778Z,27.85
2023-08-24T10:27:14.750Z,27.97
2023-08-24T10:28:14.774Z,28.06
2023-08-24T10:29:14.725Z,28.06
2023-08-24T10:30:14.792Z,28.09
2023-08-24T10:31:14.813Z,28.09
2023-08-24T10:32:14.918Z,28.04
2023-08-24T10:33:14.788Z,27.96
2023-08-24T10:34:14.695Z,27.78
2023-08-24T10:35:15.443Z,27.55
2023-08-24T10:36:15.138Z,27.32
2023-08-24T10:37:14.711Z,27.28
2023-08-24T10:38:14.621Z,27.39
2023-08-24T10:39:14.715Z,27.54
2023-08-24T10:40:14.622Z,27.69
2023-08-24T10:41:15.720Z,27.88
2023-08-24T10:42:14.653Z,27.96
2023-08-24T10:43:14.591Z,28.11
2023-08-24T10:44:14.586Z,28.24
2023-08-24T10:45:14.599Z,28.36
2023-08-24T10:46:14.615Z,28.44
2023-08-24T10:47:14.693Z,28.44
2023-08-24T10:48:14.541Z,28.39
2023-08-24T10:49:14.527Z,28.40
2023-08-24T10:50:14.529Z,28.51
2023-08-24T10:51:14.497Z,28.55
2023-08-24T10:52:14.590Z,28.22
2023-08-24T10:53:14.511Z,27.96
2023-08-24T10:54:14.510Z,27.85
2023-08-24T10:55:14.522Z,27.77
2023-08-24T10:56:14.447Z,27.74
2023-08-24T10:57:14.524Z,27.81
2023-08-24T10:58:14.425Z,27.92
2023-08-24T10:59:14.461Z,28.06
2023-08-24T11:00:14.558Z,28.19
2023-08-24T11:01:14.482Z,28.25
2023-08-24T11:02:14.390Z,28.29
2023-08-24T11:03:14.451Z,28.37
2023-08-24T11:04:14.530Z,28.44
2023-08-24T11:05:14.403Z,28.49
2023-08-24T11:06:14.503Z,28.52
2023-08-24T11:07:14.397Z,28.56
2023-08-24T11:08:14.312Z,28.55
2023-08-24T11:09:14.420Z,28.64
2023-08-24T11:10:14.349Z,28.70
2023-08-24T11:11:14.395Z,28.74
2023-08-24T11:12:14.278Z,28.81
2023-08-24T11:13:14.343Z,28.89
2023-08-24T11:14:14.256Z,28.90
2023-08-24T11:15:14.235Z,28.85
2023-08-24T11:16:14.236Z,28.83
2023-08-24T11:17:14.284Z,28.70
2023-08-24T11:18:14.234Z,28.55
2023-08-24T11:19:14.376Z,28.56
2023-08-24T11:20:14.316Z,28.59
2023-08-24T11:21:14.190Z,28.22
2023-08-24T11:22:14.237Z,28.14
2023-08-24T11:23:14.408Z,28.21
2023-08-24T11:24:14.289Z,28.33
2023-08-24T11:25:14.254Z,28.37
2023-08-24T11:26:14.116Z,28.34
2023-08-24T11:27:14.379Z,28.48
2023-08-24T11:28:14.162Z,28.58
2023-08-24T11:29:14.168Z,28.71
2023-08-24T11:30:14.071Z,28.76
2023-08-24T11:31:14.141Z,28.81
2023-08-24T11:32:14.072Z,28.90
2023-08-24T11:33:14.062Z,28.86
2023-08-24T11:34:14.078Z,28.90
2023-08-24T11:35:14.139Z,28.81
2023-08-24T11:36:14.289Z,28.78
2023-08-24T11:37:14.042Z,28.83
2023-08-24T11:38:13.991Z,28.90
2023-08-24T11:39:14.016Z,28.80
2023-08-24T11:40:13.972Z,28.64
2023-08-24T11:41:14.220Z,28.39
2023-08-24T11:42:13.995Z,28.31
2023-08-24T11:43:14.002Z,28.27
2023-08-24T11:44:23.145Z,28.37
2023-08-24T11:45:14.959Z,28.49
2023-08-24T11:46:13.996Z,28.62
2023-08-24T11:47:13.949Z,28.74
2023-08-24T11:48:13.951Z,28.85
2023-08-24T11:49:13.918Z,29.04
2023-08-24T11:50:13.937Z,29.18
2023-08-24T11:51:14.228Z,29.27
2023-08-24T11:52:13.906Z,29.26
2023-08-24T11:53:13.901Z,29.19
2023-08-24T11:54:13.904Z,29.23
2023-08-24T11:55:13.856Z,29.21
2023-08-24T11:56:13.836Z,29.26
2023-08-24T11:57:13.880Z,29.34
2023-08-24T11:58:13.807Z,29.41
2023-08-24T11:59:13.786Z,29.52
2023-08-24T12:00:13.809Z,29.52
2023-08-24T12:01:13.866Z,29.26
2023-08-24T12:02:13.848Z,29.31
2023-08-24T12:03:13.776Z,29.43
2023-08-24T12:04:13.740Z,29.55
2023-08-24T12:05:13.772Z,29.60
2023-08-24T12:06:13.711Z,29.63
2023-08-24T12:07:13.757Z,29.63
2023-08-24T12:08:13.684Z,29.55
2023-08-24T12:09:13.843Z,29.55
2023-08-24T12:10:13.655Z,29.36
2023-08-24T12:11:13.708Z,29.12
2023-08-24T12:12:13.682Z,28.98
2023-08-24T12:13:13.736Z,28.92
2023-08-24T12:14:13.628Z,29.08
2023-08-24T12:15:13.643Z,29.04
2023-08-24T12:16:13.658Z,29.12
2023-08-24T12:17:13.643Z,29.19
2023-08-24T12:18:13.659Z,29.28
2023-08-24T12:19:13.607Z,29.41
2023-08-24T12:20:13.586Z,29.49
2023-08-24T12:21:13.582Z,29.57
2023-08-24T12:22:13.589Z,29.58
2023-08-24T12:23:13.582Z,29.58
2023-08-24T12:24:13.581Z,29.61
2023-08-24T12:25:13.508Z,29.58
2023-08-24T12:26:13.555Z,29.64
2023-08-24T12:27:13.519Z,29.71
2023-08-24T12:28:13.554Z,29.58
2023-08-24T12:29:13.532Z,29.55
2023-08-24T12:30:13.514Z,29.58
2023-08-24T12:31:13.566Z,29.64
2023-08-24T12:32:13.448Z,29.70
2023-08-24T12:33:13.532Z,29.76
2023-08-24T12:34:13.422Z,29.83
2023-08-24T12:35:13.578Z,29.89
2023-08-24T12:36:13.421Z,29.98
2023-08-24T12:37:13.455Z,30.00
2023-08-24T12:38:13.437Z,29.83
2023-08-24T12:39:13.379Z,29.71
2023-08-24T12:40:13.371Z,29.67
2023-08-24T12:41:13.378Z,29.68
2023-08-24T12:42:13.368Z,29.70
2023-08-24T12:43:13.390Z,29.28
2023-08-24T12:44:15.364Z,29.02
2023-08-24T12:45:13.339Z,28.83
2023-08-24T12:46:13.378Z,28.98
2023-08-24T12:47:13.305Z,29.11
2023-08-24T12:48:13.326Z,29.15
2023-08-24T12:49:13.327Z,29.27
2023-08-24T12:50:13.278Z,29.39
2023-08-24T12:51:13.265Z,29.51
2023-08-24T12:52:13.262Z,29.60